KCGZ/CGZ METAR and TAF weather

Enter ICAO airport designator
Station Type Date Time Source
KCGZ METAR 2020/08/14 02:56 UTC NOAA

KCGZ 140256Z AUTO 27011KT 10SM CLR 39/12 A2980 RMK AO2 SLP070 T03940117 53012


Station Type Date Time Source
KCGZ Decoded METAR 2020/08/14 02:56 UTC NOAA

Casa Grande, Casa Grande Municipal Airport, AZ, United States (KCGZ) 32-57N 111-46W
Aug 13, 2020 - 10:56 PM EDT / 2020.08.14 0256 UTC
Wind: from the W (270 degrees) at 13 MPH (11 KT):0
Visibility: 10 mile(s):0
Sky conditions: clear
Temperature: 102.9 F (39.4 C)
Heat index: 100.8 F (38.2 C):1
Dew Point: 53.1 F (11.7 C)
Relative Humidity: 19%
Pressure (altimeter): 29.8 in. Hg (1009 hPa)
Pressure tendency: 0.04 inches (1.2 hPa) higher than three hours ago
ob: KCGZ 140256Z AUTO 27011KT 10SM CLR 39/12 A2980 RMK AO2 SLP070 T03940117 53012
cycle: 3

Station Type Date Time Source
KCGZ TAF UTC NOAA

Error!

Example: see airport list